Time;durP1;ratioP1;P1;durP2;ratioP2;P2;SDS_P1;SDS_P2;PMS_P1;PMS_P2;Temp;Humidity;BMP_temperature;BMP_pressure;BME280_temperature;BME280_humidity;BME280_pressure;Samples;Min_cycle;Max_cycle;Signal;HPM_P1;HPM_P2
2021/08/29 00:00:24;;;;;;;5.53;4.10;;;20.80;65.70;;;;;;5093428;28;20237;-63
2021/08/29 00:02:49;;;;;;;6.07;4.18;;;20.80;65.70;;;;;;5094582;28;20174;-62
2021/08/29 00:05:15;;;;;;;4.95;3.67;;;20.80;65.70;;;;;;5094545;28;20170;-63
2021/08/29 00:07:40;;;;;;;5.82;4.03;;;20.80;65.80;;;;;;5094066;28;20181;-63
2021/08/29 00:10:06;;;;;;;7.97;4.43;;;20.80;65.70;;;;;;5094516;28;20170;-64
2021/08/29 00:12:32;;;;;;;6.28;4.28;;;20.80;65.70;;;;;;5093383;28;20227;-66
2021/08/29 00:14:57;;;;;;;7.00;4.03;;;20.70;65.70;;;;;;5094096;28;20578;-62
2021/08/29 00:17:23;;;;;;;6.53;3.83;;;20.80;65.70;;;;;;5093970;28;20629;-63
2021/08/29 00:19:49;;;;;;;6.80;4.07;;;20.80;65.70;;;;;;5093588;28;20297;-62
2021/08/29 00:22:14;;;;;;;5.78;3.78;;;20.70;65.70;;;;;;5094533;28;20174;-62
2021/08/29 00:24:40;;;;;;;4.22;3.50;;;20.80;65.70;;;;;;5094013;28;20176;-62
2021/08/29 00:27:05;;;;;;;6.22;3.80;;;20.80;65.70;;;;;;5093504;28;20574;-62
2021/08/29 00:29:31;;;;;;;7.85;4.10;;;20.80;65.70;;;;;;5093749;28;20173;-62
2021/08/29 00:31:56;;;;;;;6.75;3.92;;;20.70;65.70;;;;;;5094204;28;20173;-62
2021/08/29 00:34:22;;;;;;;7.18;4.20;;;20.70;65.60;;;;;;5093191;28;20170;-63
2021/08/29 00:36:47;;;;;;;5.50;3.88;;;20.70;65.60;;;;;;5093805;28;20169;-63
2021/08/29 00:39:13;;;;;;;6.38;4.20;;;20.70;65.70;;;;;;5094043;28;20647;-63
2021/08/29 00:41:45;;;;;;;6.53;3.95;;;20.80;65.80;;;;;;5092901;28;20297;-62
2021/08/29 00:44:16;;;;;;;3.95;3.50;;;20.70;65.70;;;;;;5093766;28;20178;-62
2021/08/29 00:46:42;;;;;;;4.90;3.60;;;20.70;65.70;;;;;;5093626;28;20184;-63
2021/08/29 00:49:13;;;;;;;5.90;4.03;;;20.70;65.70;;;;;;5108924;28;20275;-62
2021/08/29 00:51:38;;;;;;;6.60;4.13;;;20.70;65.70;;;;;;5108996;28;20170;-62
2021/08/29 00:54:04;;;;;;;4.85;3.30;;;20.70;65.80;;;;;;5093624;28;20200;-62
2021/08/29 00:56:29;;;;;;;5.72;3.65;;;20.70;65.70;;;;;;5092541;28;20660;-62
2021/08/29 00:58:55;;;;;;;5.13;3.63;;;20.70;65.70;;;;;;5093495;28;20260;-62
2021/08/29 01:01:22;;;;;;;4.90;3.58;;;20.70;65.80;;;;;;5093763;28;20266;-62
2021/08/29 01:03:49;;;;;;;7.25;3.55;;;20.70;65.70;;;;;;5108465;28;20170;-63
2021/08/29 01:06:44;;;;;;;5.95;3.97;;;20.70;65.70;;;;;;5093408;28;20174;-63
2021/08/29 01:09:09;;;;;;;4.32;3.38;;;20.70;65.80;;;;;;5092271;28;20265;-63
2021/08/29 01:11:36;;;;;;;5.38;3.90;;;20.70;65.80;;;;;;5108846;28;20258;-62
2021/08/29 01:14:04;;;;;;;6.85;3.58;;;20.70;65.80;;;;;;5092171;28;20178;-62
2021/08/29 01:16:32;;;;;;;4.95;3.60;;;20.70;65.70;;;;;;5092296;28;20178;-62
2021/08/29 01:18:58;;;;;;;5.22;3.45;;;20.70;65.70;;;;;;5108547;28;20173;-62
2021/08/29 01:21:26;;;;;;;4.65;3.50;;;20.70;65.80;;;;;;5091476;28;20210;-62
2021/08/29 01:24:07;;;;;;;5.70;3.90;;;20.70;65.80;;;;;;5107930;28;20172;-62
2021/08/29 01:26:50;;;;;;;6.03;3.50;;;20.70;66.60;;;;;;5092213;28;20188;-62
2021/08/29 01:29:17;;;;;;;4.55;3.08;;;20.70;65.80;;;;;;5108690;28;20177;-62
2021/08/29 01:31:42;;;;;;;5.50;3.80;;;20.70;65.80;;;;;;5107611;28;20170;-62
2021/08/29 01:34:12;;;;;;;5.57;3.28;;;20.70;65.80;;;;;;5108482;28;20226;-62
2021/08/29 01:36:40;;;;;;;4.80;3.42;;;20.70;65.80;;;;;;5091302;28;20189;-63
2021/08/29 01:39:05;;;;;;;6.10;3.53;;;20.70;65.80;;;;;;5108062;28;20268;-62
2021/08/29 01:41:32;;;;;;;5.03;3.80;;;20.60;65.70;;;;;;5092456;28;20691;-63
2021/08/29 01:43:58;;;;;;;4.03;3.38;;;20.60;65.80;;;;;;5091995;28;20174;-62
2021/08/29 01:46:23;;;;;;;4.68;3.50;;;20.60;65.80;;;;;;5091231;28;20170;-63
2021/08/29 01:48:49;;;;;;;4.15;3.08;;;20.60;65.80;;;;;;5108131;28;20170;-63
2021/08/29 01:51:14;;;;;;;6.18;3.83;;;20.60;65.80;;;;;;5090465;28;20560;-63
2021/08/29 01:53:40;;;;;;;6.78;3.53;;;20.60;65.80;;;;;;5092329;28;20182;-63
2021/08/29 01:56:06;;;;;;;4.65;3.58;;;20.70;65.80;;;;;;5092529;28;20268;-62
2021/08/29 01:58:31;;;;;;;3.70;3.30;;;20.60;65.70;;;;;;5091537;28;20185;-63
2021/08/29 02:00:58;;;;;;;5.20;3.40;;;20.60;65.70;;;;;;5092330;28;20267;-63
2021/08/29 02:03:24;;;;;;;4.72;3.38;;;20.60;65.70;;;;;;5091900;28;20188;-63
2021/08/29 02:05:57;;;;;;;3.85;3.00;;;20.60;65.70;;;;;;5107711;28;20256;-63
2021/08/29 02:08:22;;;;;;;3.75;3.22;;;20.60;65.80;;;;;;5090926;28;20227;-63
2021/08/29 02:10:48;;;;;;;5.20;3.60;;;20.60;65.80;;;;;;5092494;28;20192;-63
2021/08/29 02:13:14;;;;;;;4.35;3.20;;;20.60;65.70;;;;;;5090320;28;20566;-63
2021/08/29 02:15:51;;;;;;;5.75;3.42;;;20.60;65.80;;;;;;5107568;28;20174;-62
2021/08/29 02:18:16;;;;;;;4.28;3.05;;;20.60;65.80;;;;;;5092491;28;20182;-63
2021/08/29 02:20:42;;;;;;;4.45;3.40;;;20.60;65.80;;;;;;5089746;28;20756;-62
2021/08/29 02:23:07;;;;;;;6.63;3.58;;;20.60;65.80;;;;;;5107957;28;20628;-61
2021/08/29 02:25:33;;;;;;;3.53;3.22;;;20.60;65.80;;;;;;5107659;28;20181;-62
2021/08/29 02:27:58;;;;;;;4.15;3.10;;;20.60;65.80;;;;;;5090057;28;20227;-62
2021/08/29 02:30:24;;;;;;;4.80;3.22;;;20.60;66.60;;;;;;5091732;28;20166;-62
2021/08/29 02:32:52;;;;;;;5.43;3.70;;;20.60;65.80;;;;;;5090908;28;20264;-63
2021/08/29 02:35:17;;;;;;;4.40;2.95;;;20.60;65.80;;;;;;5090321;28;20173;-63
2021/08/29 02:37:43;;;;;;;5.05;2.90;;;20.60;65.80;;;;;;5095244;28;20227;-62
2021/08/29 02:40:09;;;;;;;4.72;3.05;;;20.60;65.80;;;;;;5111191;28;20255;-63
2021/08/29 02:42:35;;;;;;;4.45;3.20;;;20.60;65.80;;;;;;5095817;28;20223;-62
2021/08/29 02:45:03;;;;;;;3.95;3.20;;;20.60;65.80;;;;;;5096076;28;20173;-62
2021/08/29 02:47:29;;;;;;;4.82;3.20;;;20.60;65.90;;;;;;5095037;28;20178;-62
2021/08/29 02:49:55;;;;;;;4.82;3.55;;;20.60;65.80;;;;;;5096201;28;20197;-62
2021/08/29 02:52:20;;;;;;;5.57;3.30;;;20.60;65.80;;;;;;5094444;28;20197;-62
2021/08/29 02:54:46;;;;;;;3.50;3.00;;;20.60;65.80;;;;;;5110985;28;20181;-62
2021/08/29 02:57:12;;;;;;;6.00;3.33;;;20.60;65.80;;;;;;5096040;28;20186;-62
2021/08/29 02:59:38;;;;;;;3.65;2.85;;;20.60;65.90;;;;;;5111110;28;20295;-62
2021/08/29 03:02:10;;;;;;;3.50;2.92;;;20.60;65.80;;;;;;5095151;28;20296;-62
2021/08/29 03:04:36;;;;;;;4.32;2.90;;;20.60;65.90;;;;;;5095637;28;20307;-63
2021/08/29 03:07:02;;;;;;;3.60;2.90;;;20.60;65.80;;;;;;5095776;28;20208;-62
2021/08/29 03:09:33;;;;;;;5.10;3.15;;;20.60;65.80;;;;;;5110394;28;20189;-62
2021/08/29 03:12:05;;;;;;;5.53;3.05;;;20.50;65.80;;;;;;5095600;28;20185;-62
2021/08/29 03:14:32;;;;;;;3.95;3.13;;;20.50;65.80;;;;;;5095396;28;20227;-62
2021/08/29 03:16:58;;;;;;;3.55;2.80;;;20.50;65.80;;;;;;5110389;28;20517;-62
2021/08/29 03:19:24;;;;;;;4.20;3.00;;;20.50;65.80;;;;;;5094955;28;20251;-62
2021/08/29 03:21:49;;;;;;;3.53;3.17;;;20.50;65.80;;;;;;5095480;28;20241;-62
2021/08/29 03:24:15;;;;;;;4.25;3.17;;;20.50;65.80;;;;;;5094710;28;20174;-62
2021/08/29 03:26:41;;;;;;;4.82;2.80;;;20.50;65.80;;;;;;5094945;28;20173;-62
2021/08/29 03:29:06;;;;;;;4.38;3.20;;;20.50;65.80;;;;;;5095295;28;20655;-62
2021/08/29 03:31:32;;;;;;;4.25;3.10;;;20.50;65.80;;;;;;5094371;28;20178;-62
2021/08/29 03:33:57;;;;;;;2.95;2.60;;;20.50;65.80;;;;;;5095053;28;20538;-62
2021/08/29 03:36:23;;;;;;;4.60;2.92;;;20.50;65.80;;;;;;5092843;28;20177;-63
2021/08/29 03:38:49;;;;;;;5.05;3.10;;;20.50;66.70;;;;;;5110676;28;20231;-63
2021/08/29 03:41:15;;;;;;;3.88;3.15;;;20.50;65.80;;;;;;5094808;28;20202;-63
2021/08/29 03:43:41;;;;;;;4.47;2.72;;;20.50;65.80;;;;;;5094144;28;20181;-62
2021/08/29 03:46:07;;;;;;;3.35;2.58;;;20.50;65.80;;;;;;5093775;28;20178;-62
2021/08/29 03:48:33;;;;;;;4.82;3.33;;;20.50;65.80;;;;;;5093919;28;20662;-62
2021/08/29 03:50:58;;;;;;;3.45;2.95;;;20.50;65.90;;;;;;5094207;28;20174;-62
2021/08/29 03:53:24;;;;;;;3.42;2.70;;;20.50;65.80;;;;;;5110123;28;20170;-61
2021/08/29 03:55:49;;;;;;;3.78;2.70;;;20.50;65.80;;;;;;5093391;28;20174;-62
2021/08/29 03:58:14;;;;;;;5.55;3.33;;;20.50;65.90;;;;;;5092635;28;20557;-61
2021/08/29 04:00:40;;;;;;;4.43;3.00;;;20.50;66.00;;;;;;5093093;28;20269;-62
2021/08/29 04:03:06;;;;;;;4.20;3.28;;;20.50;65.90;;;;;;5094732;28;20406;-62
2021/08/29 04:05:31;;;;;;;3.58;2.88;;;20.50;65.90;;;;;;5093527;28;20169;-62
2021/08/29 04:07:57;;;;;;;4.55;2.90;;;20.50;66.70;;;;;;5094482;28;20304;-62
2021/08/29 04:10:22;;;;;;;4.28;3.35;;;20.50;65.90;;;;;;5094132;28;20169;-62
2021/08/29 04:12:48;;;;;;;3.55;2.95;;;20.50;65.90;;;;;;5109235;28;20520;-62
2021/08/29 04:15:13;;;;;;;3.95;3.47;;;20.50;65.90;;;;;;5110066;28;20176;-61
2021/08/29 04:17:39;;;;;;;2.72;2.30;;;20.50;65.90;;;;;;5094002;28;20273;-61
2021/08/29 04:20:05;;;;;;;4.45;2.95;;;20.40;65.80;;;;;;5109057;28;20315;-61
2021/08/29 04:22:31;;;;;;;4.65;3.20;;;20.50;65.90;;;;;;5093852;28;20178;-61
2021/08/29 04:24:56;;;;;;;4.38;2.95;;;20.50;65.90;;;;;;5094140;28;20286;-61
2021/08/29 04:27:22;;;;;;;2.95;2.55;;;20.40;65.90;;;;;;5092954;28;20676;-62
2021/08/29 04:29:48;;;;;;;3.13;2.80;;;20.40;65.90;;;;;;5094101;28;20581;-62
2021/08/29 04:32:14;;;;;;;2.97;2.50;;;20.50;66.00;;;;;;5094165;28;20301;-61
2021/08/29 04:34:39;;;;;;;4.32;3.20;;;20.40;65.90;;;;;;5108886;28;20526;-62
2021/08/29 04:37:08;;;;;;;4.40;3.08;;;20.50;66.80;;;;;;5093851;28;20293;-62
2021/08/29 04:39:37;;;;;;;4.93;3.30;;;20.40;66.00;;;;;;5093111;28;20299;-62
2021/08/29 04:42:03;;;;;;;3.55;2.72;;;20.40;66.00;;;;;;5093871;28;20220;-61
2021/08/29 04:44:29;;;;;;;4.20;3.00;;;20.40;66.00;;;;;;5093482;28;20181;-63
2021/08/29 04:46:54;;;;;;;4.05;2.95;;;20.40;65.90;;;;;;5093185;28;20182;-61
2021/08/29 04:49:20;;;;;;;3.55;3.00;;;20.40;65.90;;;;;;5093583;28;20165;-62
2021/08/29 04:51:45;;;;;;;3.47;2.65;;;20.40;65.90;;;;;;5093506;28;20178;-61
2021/08/29 04:54:11;;;;;;;3.63;2.97;;;20.40;65.90;;;;;;5092651;28;20174;-61
2021/08/29 04:56:36;;;;;;;2.90;2.60;;;20.40;66.00;;;;;;5093089;28;20174;-61
2021/08/29 04:59:02;;;;;;;3.58;2.45;;;20.40;66.00;;;;;;5093298;28;20223;-61
2021/08/29 05:01:30;;;;;;;3.05;2.72;;;20.40;66.00;;;;;;5091587;28;20362;-62
2021/08/29 05:03:56;;;;;;;3.72;3.28;;;20.40;65.90;;;;;;5093459;28;20177;-62
2021/08/29 05:06:22;;;;;;;4.57;2.85;;;20.40;65.90;;;;;;5092996;28;20170;-62
2021/08/29 05:08:47;;;;;;;3.92;3.10;;;20.40;65.90;;;;;;5092454;28;20173;-62
2021/08/29 05:11:13;;;;;;;3.00;2.70;;;20.40;66.00;;;;;;5093302;28;20180;-62
2021/08/29 05:13:38;;;;;;;3.08;2.40;;;20.40;66.00;;;;;;5092929;28;20162;-62
2021/08/29 05:16:04;;;;;;;3.50;2.78;;;20.40;66.00;;;;;;5092347;28;20173;-61
2021/08/29 05:18:30;;;;;;;3.85;2.47;;;20.40;65.90;;;;;;5092776;28;20170;-61
2021/08/29 05:20:58;;;;;;;3.85;3.28;;;20.40;65.90;;;;;;5092862;28;20267;-61
2021/08/29 05:23:24;;;;;;;2.85;2.50;;;20.40;65.90;;;;;;5091832;28;20648;-61
2021/08/29 05:25:49;;;;;;;3.67;2.60;;;20.40;65.90;;;;;;5092914;28;20287;-62
2021/08/29 05:28:15;;;;;;;4.50;3.17;;;20.40;66.00;;;;;;5092797;28;20208;-61
2021/08/29 05:30:40;;;;;;;3.30;3.00;;;20.40;66.00;;;;;;5091921;28;20209;-62
2021/08/29 05:33:06;;;;;;;3.83;3.08;;;20.40;66.00;;;;;;5092910;28;20170;-62
2021/08/29 05:35:31;;;;;;;3.65;3.05;;;20.40;66.00;;;;;;5092583;28;20174;-62
2021/08/29 05:37:57;;;;;;;5.35;2.92;;;20.40;66.00;;;;;;5091954;28;20173;-62
2021/08/29 05:40:22;;;;;;;3.38;2.42;;;20.40;66.10;;;;;;5092225;28;20664;-62
2021/08/29 05:42:48;;;;;;;3.28;2.50;;;20.40;66.10;;;;;;5092825;28;20220;-62
2021/08/29 05:45:13;;;;;;;3.15;2.60;;;20.40;66.00;;;;;;5091942;28;20205;-62
2021/08/29 05:47:42;;;;;;;4.05;2.70;;;20.40;66.00;;;;;;5092278;28;20648;-62
2021/08/29 05:50:08;;;;;;;3.63;2.42;;;20.40;66.00;;;;;;5091731;28;20494;-61
2021/08/29 05:52:33;;;;;;;2.53;2.33;;;20.40;66.00;;;;;;5092073;28;20181;-62
2021/08/29 05:54:59;;;;;;;3.22;2.63;;;20.40;66.00;;;;;;5092342;28;20204;-62
2021/08/29 05:57:24;;;;;;;3.90;2.80;;;20.40;66.00;;;;;;5090933;28;20281;-62
2021/08/29 05:59:49;;;;;;;3.30;2.60;;;20.40;66.90;;;;;;5092445;28;20170;-62
2021/08/29 06:02:15;;;;;;;2.78;2.50;;;20.40;66.00;;;;;;5092250;28;20656;-62
2021/08/29 06:04:43;;;;;;;3.78;2.85;;;20.40;65.90;;;;;;5091314;28;20303;-62
2021/08/29 06:07:08;;;;;;;3.35;3.00;;;20.40;65.90;;;;;;5092163;28;20178;-63
2021/08/29 06:09:34;;;;;;;3.20;2.60;;;20.40;65.90;;;;;;5092040;28;20299;-63
2021/08/29 06:11:59;;;;;;;3.88;2.92;;;20.40;66.00;;;;;;5091268;28;20170;-62
2021/08/29 06:14:25;;;;;;;3.65;2.90;;;20.40;66.00;;;;;;5091694;28;20588;-62
2021/08/29 06:16:50;;;;;;;3.85;3.03;;;20.40;66.00;;;;;;5092259;28;20331;-62
2021/08/29 06:19:16;;;;;;;3.08;2.78;;;20.40;66.00;;;;;;5091185;28;20229;-62
2021/08/29 06:21:42;;;;;;;3.75;2.78;;;20.40;65.90;;;;;;5091683;28;20321;-62
2021/08/29 06:24:08;;;;;;;2.90;2.70;;;20.40;65.90;;;;;;5091922;28;20212;-62
2021/08/29 06:26:33;;;;;;;4.15;2.65;;;20.40;65.90;;;;;;5091171;28;20647;-62
2021/08/29 06:28:59;;;;;;;4.18;2.70;;;20.40;66.00;;;;;;5092148;28;20227;-62
2021/08/29 06:31:24;;;;;;;4.00;2.63;;;20.40;65.90;;;;;;5091635;28;20174;-62
2021/08/29 06:33:50;;;;;;;3.08;2.75;;;20.40;65.90;;;;;;5091301;28;20268;-63
2021/08/29 06:36:15;;;;;;;2.55;2.35;;;20.40;66.00;;;;;;5091866;28;20169;-63
2021/08/29 06:38:41;;;;;;;2.75;2.42;;;20.40;65.90;;;;;;5091536;28;20234;-63
2021/08/29 06:41:07;;;;;;;3.35;2.85;;;20.40;65.90;;;;;;5091339;28;20213;-62
2021/08/29 06:43:32;;;;;;;3.50;2.80;;;20.40;65.90;;;;;;5091736;28;20340;-63
2021/08/29 06:45:58;;;;;;;3.25;2.10;;;20.40;65.90;;;;;;5091798;28;20636;-62
2021/08/29 06:48:23;;;;;;;4.72;2.90;;;20.40;65.90;;;;;;5090685;28;20173;-62
2021/08/29 06:50:49;;;;;;;4.40;2.83;;;20.40;65.90;;;;;;5091632;28;20256;-62
2021/08/29 06:53:14;;;;;;;3.65;2.55;;;20.40;66.00;;;;;;5091243;28;20166;-62
2021/08/29 06:55:40;;;;;;;4.47;2.80;;;20.40;66.00;;;;;;5091568;28;20223;-62
2021/08/29 06:58:06;;;;;;;3.38;2.50;;;20.40;66.00;;;;;;5091872;28;20170;-62
2021/08/29 07:00:31;;;;;;;4.05;2.85;;;20.40;65.90;;;;;;5090661;28;20360;-63
2021/08/29 07:02:57;;;;;;;7.13;3.55;;;20.40;66.00;;;;;;5091614;28;20180;-62
2021/08/29 07:05:22;;;;;;;3.20;2.47;;;20.40;66.00;;;;;;5091191;28;20178;-64
2021/08/29 07:07:47;;;;;;;3.45;2.80;;;20.40;65.90;;;;;;5090927;28;20173;-63
2021/08/29 07:10:13;;;;;;;2.58;2.30;;;20.40;66.00;;;;;;5091666;28;20169;-62
2021/08/29 07:12:38;;;;;;;3.00;2.60;;;20.40;66.00;;;;;;5091120;28;20641;-62
2021/08/29 07:15:05;;;;;;;2.78;2.53;;;20.40;66.00;;;;;;5090824;28;20173;-62
2021/08/29 07:17:30;;;;;;;2.50;2.30;;;20.40;66.00;;;;;;5091097;28;20272;-62
2021/08/29 07:19:56;;;;;;;4.05;2.55;;;20.40;65.90;;;;;;5090991;28;20244;-61
2021/08/29 07:22:21;;;;;;;3.25;2.35;;;20.40;65.90;;;;;;5090473;28;20284;-62
2021/08/29 07:24:47;;;;;;;2.90;2.50;;;20.40;65.90;;;;;;5094388;28;20165;-61
2021/08/29 07:27:12;;;;;;;4.60;2.85;;;20.40;65.90;;;;;;5094920;28;20248;-62
2021/08/29 07:29:38;;;;;;;3.53;2.63;;;20.40;66.00;;;;;;5093933;28;20170;-62
2021/08/29 07:32:04;;;;;;;2.60;2.40;;;20.40;66.00;;;;;;5095122;28;20174;-62
2021/08/29 07:34:29;;;;;;;3.35;2.30;;;20.40;65.90;;;;;;5094560;28;20185;-62
2021/08/29 07:36:55;;;;;;;3.28;2.55;;;20.40;65.90;;;;;;5094275;28;20174;-63
2021/08/29 07:39:20;;;;;;;3.55;2.67;;;20.40;66.00;;;;;;5094657;28;20170;-63
2021/08/29 07:41:46;;;;;;;4.28;2.40;;;20.40;66.00;;;;;;5094683;28;20248;-62
2021/08/29 07:44:11;;;;;;;3.65;2.70;;;20.40;66.00;;;;;;5094107;28;20227;-62
2021/08/29 07:46:37;;;;;;;3.70;2.88;;;20.40;66.00;;;;;;5094515;28;20184;-62
2021/08/29 07:49:03;;;;;;;4.10;2.33;;;20.40;66.00;;;;;;5094641;28;20181;-61
2021/08/29 07:51:29;;;;;;;2.83;2.10;;;20.40;66.00;;;;;;5109279;28;20636;-61
2021/08/29 07:53:54;;;;;;;3.60;2.33;;;20.40;66.00;;;;;;5094540;28;20173;-62
2021/08/29 07:56:20;;;;;;;4.13;2.70;;;20.40;66.10;;;;;;5094281;28;20629;-60
2021/08/29 07:58:45;;;;;;;3.85;2.65;;;20.40;66.20;;;;;;5093741;28;20636;-62
2021/08/29 08:01:11;;;;;;;4.80;2.67;;;20.40;66.20;;;;;;5094171;28;20254;-62
2021/08/29 08:03:36;;;;;;;3.25;2.25;;;20.40;66.20;;;;;;5093319;28;20215;-62
2021/08/29 08:06:04;;;;;;;2.97;2.67;;;20.40;66.20;;;;;;5093363;28;20280;-59
2021/08/29 08:08:30;;;;;;;3.65;1.92;;;20.40;66.10;;;;;;5092541;28;20662;-60
2021/08/29 08:10:55;;;;;;;4.30;2.35;;;20.50;66.20;;;;;;5093410;28;20178;-59
2021/08/29 08:13:20;;;;;;;5.90;2.83;;;20.50;66.00;;;;;;5093376;28;20170;-60
2021/08/29 08:15:46;;;;;;;2.95;2.03;;;20.50;66.10;;;;;;5094132;28;20219;-60
2021/08/29 08:18:11;;;;;;;4.93;2.72;;;20.50;66.10;;;;;;5093038;28;20261;-60
2021/08/29 08:20:40;;;;;;;4.35;2.70;;;20.50;66.10;;;;;;5093313;28;20225;-59
2021/08/29 08:23:05;;;;;;;5.45;2.53;;;20.60;66.20;;;;;;5094098;28;20265;-60
2021/08/29 08:25:31;;;;;;;5.82;2.70;;;20.50;66.30;;;;;;5092892;28;20608;-60
2021/08/29 08:27:56;;;;;;;4.82;2.53;;;20.50;66.30;;;;;;5094035;28;20273;-59
2021/08/29 08:30:22;;;;;;;3.53;2.65;;;20.50;66.60;;;;;;5093609;28;20190;-60
2021/08/29 08:32:47;;;;;;;4.85;2.50;;;20.60;66.60;;;;;;5092993;28;20592;-60
2021/08/29 08:35:13;;;;;;;4.00;2.70;;;20.60;66.70;;;;;;5093451;28;20215;-60
2021/08/29 08:37:38;;;;;;;5.18;2.55;;;20.60;66.60;;;;;;5093226;28;20203;-60
2021/08/29 08:40:05;;;;;;;4.13;2.65;;;20.60;66.50;;;;;;5093021;28;20170;-60
2021/08/29 08:42:30;;;;;;;5.65;3.05;;;20.60;66.40;;;;;;5093057;28;20617;-60
2021/08/29 08:44:56;;;;;;;3.50;2.67;;;20.70;66.20;;;;;;5093484;28;20260;-60
2021/08/29 08:47:21;;;;;;;3.70;2.47;;;20.70;66.40;;;;;;5092318;28;20174;-60
2021/08/29 08:49:47;;;;;;;3.55;2.65;;;20.60;66.30;;;;;;5093524;28;20231;-60
2021/08/29 08:52:21;;;;;;;5.95;2.65;;;20.70;66.40;;;;;;5092273;28;20616;-60
2021/08/29 08:54:47;;;;;;;2.90;2.45;;;20.70;66.30;;;;;;5091468;28;20251;-60
2021/08/29 08:57:17;;;;;;;4.10;2.58;;;20.70;66.40;;;;;;5093365;28;20212;-59
2021/08/29 08:59:46;;;;;;;4.53;2.67;;;20.70;66.40;;;;;;5092821;28;20259;-59
2021/08/29 09:02:13;;;;;;;4.20;2.67;;;20.70;66.30;;;;;;5092523;28;20220;-61
2021/08/29 09:04:42;;;;;;;5.05;2.40;;;20.70;66.30;;;;;;5092650;28;20201;-60
2021/08/29 09:07:07;;;;;;;3.17;2.30;;;20.70;66.40;;;;;;5092419;28;20189;-60
2021/08/29 09:09:33;;;;;;;3.33;2.60;;;20.70;66.10;;;;;;5092784;28;20170;-59
2021/08/29 09:11:59;;;;;;;4.38;2.88;;;20.70;66.40;;;;;;5093198;28;20180;-60
2021/08/29 09:14:41;;;;;;;5.28;2.42;;;20.70;66.30;;;;;;5092019;28;20302;-60
2021/08/29 09:17:32;;;;;;;5.68;2.70;;;20.70;66.30;;;;;;5093277;28;20311;-60
2021/08/29 09:20:24;;;;;;;4.80;2.67;;;20.60;66.40;;;;;;5092850;28;20255;-60
2021/08/29 09:22:54;;;;;;;4.97;2.78;;;20.60;66.60;;;;;;5092056;28;20259;-60
2021/08/29 09:25:21;;;;;;;3.10;2.47;;;20.60;66.70;;;;;;5092865;28;20181;-60
2021/08/29 09:27:49;;;;;;;3.33;2.38;;;20.60;66.80;;;;;;5093047;28;20178;-60
2021/08/29 09:30:15;;;;;;;4.68;2.53;;;20.60;66.90;;;;;;5091800;28;20659;-60
2021/08/29 09:32:48;;;;;;;6.40;2.40;;;20.60;67.00;;;;;;5092360;28;20178;-61
2021/08/29 09:35:14;;;;;;;4.43;2.25;;;20.60;66.90;;;;;;5091790;28;20648;-60
2021/08/29 09:37:39;;;;;;;5.72;2.30;;;20.60;67.10;;;;;;5092600;28;20306;-60
2021/08/29 09:40:27;;;;;;;4.97;2.67;;;20.60;67.20;;;;;;5092297;28;20513;-60
2021/08/29 09:42:53;;;;;;;6.10;2.28;;;20.60;67.20;;;;;;5091947;28;20177;-59
2021/08/29 09:45:43;;;;;;;6.45;2.47;;;20.60;67.10;;;;;;5092461;28;20242;-62
2021/08/29 09:48:13;;;;;;;4.18;2.35;;;20.60;67.20;;;;;;5092189;28;20181;-61
2021/08/29 09:50:39;;;;;;;5.22;2.38;;;20.60;66.80;;;;;;5091448;28;20225;-60
2021/08/29 09:53:07;;;;;;;7.03;2.40;;;20.70;66.70;;;;;;5092452;28;20173;-60
2021/08/29 09:55:34;;;;;;;6.95;2.70;;;20.70;66.80;;;;;;5092081;28;20178;-61
2021/08/29 09:58:00;;;;;;;5.47;2.60;;;20.70;66.80;;;;;;5091384;28;20184;-60
2021/08/29 10:00:25;;;;;;;3.35;2.08;;;20.70;66.80;;;;;;5091550;28;20197;-62
2021/08/29 10:03:04;;;;;;;5.05;2.33;;;20.70;67.10;;;;;;5092306;28;20193;-60
2021/08/29 10:05:30;;;;;;;3.88;2.00;;;20.70;67.10;;;;;;5091356;28;20182;-61
2021/08/29 10:08:09;;;;;;;4.53;2.60;;;20.70;67.10;;;;;;5092133;28;20642;-61
2021/08/29 10:10:38;;;;;;;4.28;2.10;;;20.70;67.00;;;;;;5090987;28;20238;-59
2021/08/29 10:13:04;;;;;;;2.83;2.20;;;20.70;67.20;;;;;;5091815;28;20250;-59
2021/08/29 10:15:33;;;;;;;3.75;2.05;;;20.70;67.10;;;;;;5091581;28;20624;-60
2021/08/29 10:18:00;;;;;;;5.07;3.00;;;20.70;67.40;;;;;;5089825;28;20625;-60
2021/08/29 10:20:25;;;;;;;2.85;2.03;;;20.70;67.50;;;;;;5091334;28;20263;-59
2021/08/29 10:22:51;;;;;;;5.43;2.35;;;20.70;67.40;;;;;;5091762;28;20178;-63
2021/08/29 10:25:17;;;;;;;3.35;2.15;;;20.70;67.20;;;;;;5091053;28;20174;-63
2021/08/29 10:27:44;;;;;;;4.03;2.47;;;20.70;67.30;;;;;;5091451;28;20186;-63
2021/08/29 10:30:11;;;;;;;4.03;2.30;;;20.70;67.30;;;;;;5090712;28;20162;-63
2021/08/29 10:32:42;;;;;;;4.65;2.25;;;20.70;67.30;;;;;;5089662;28;20260;-64
2021/08/29 10:35:14;;;;;;;2.38;1.73;;;20.70;67.30;;;;;;5090649;28;20253;-64
2021/08/29 10:37:46;;;;;;;2.58;2.35;;;20.70;67.30;;;;;;5091560;28;20181;-64
2021/08/29 10:40:12;;;;;;;9.98;2.42;;;20.70;67.30;;;;;;5090888;28;20174;-63
2021/08/29 10:42:40;;;;;;;5.53;2.40;;;20.80;67.30;;;;;;5091699;28;20295;-60
2021/08/29 10:45:06;;;;;;;3.47;2.20;;;20.80;67.00;;;;;;5091785;28;20200;-60
2021/08/29 10:47:32;;;;;;;5.05;2.20;;;20.80;66.90;;;;;;5090784;28;20599;-61
2021/08/29 10:49:58;;;;;;;2.00;1.77;;;20.70;66.80;;;;;;5090477;28;20268;-61
2021/08/29 10:52:24;;;;;;;5.55;2.45;;;20.70;67.00;;;;;;5089328;28;20549;-60
2021/08/29 10:54:53;;;;;;;4.18;2.10;;;20.70;67.20;;;;;;5090382;28;20189;-60
2021/08/29 10:57:29;;;;;;;5.00;2.00;;;20.70;67.20;;;;;;5092701;28;20178;-60
2021/08/29 11:00:04;;;;;;;4.15;2.05;;;20.70;67.30;;;;;;5095118;28;20177;-61
2021/08/29 11:02:47;;;;;;;2.97;1.80;;;20.70;67.10;;;;;;5095306;28;20189;-60
2021/08/29 11:05:17;;;;;;;2.45;1.83;;;20.70;67.20;;;;;;5095561;28;20532;-60
2021/08/29 11:07:47;;;;;;;2.88;2.08;;;20.70;67.20;;;;;;5094712;28;20192;-61
2021/08/29 11:10:33;;;;;;;4.00;2.25;;;20.70;67.10;;;;;;5095371;28;20650;-60
2021/08/29 11:12:59;;;;;;;3.25;1.80;;;20.70;67.20;;;;;;5095249;28;20174;-60
2021/08/29 11:15:36;;;;;;;4.93;2.05;;;20.70;67.20;;;;;;5092933;28;20174;-61
2021/08/29 11:18:02;;;;;;;2.67;2.00;;;20.70;67.20;;;;;;5095430;28;20174;-60
2021/08/29 11:20:28;;;;;;;3.80;2.00;;;20.70;67.20;;;;;;5094468;28;20221;-60
2021/08/29 11:22:53;;;;;;;4.28;2.28;;;20.70;67.20;;;;;;5093543;28;20186;-60
2021/08/29 11:25:24;;;;;;;5.03;2.03;;;20.70;67.20;;;;;;5095138;28;20182;-60
2021/08/29 11:27:54;;;;;;;4.40;2.25;;;20.70;67.20;;;;;;5101764;28;20940;-59
2021/08/29 11:30:38;;;;;;;5.95;2.63;;;20.70;67.20;;;;;;5097034;28;20188;-60
2021/08/29 11:33:06;;;;;;;3.13;2.08;;;20.70;67.10;;;;;;5114982;28;20217;-61
2021/08/29 11:35:33;;;;;;;2.88;1.85;;;20.70;67.00;;;;;;5104214;28;20197;-61
2021/08/29 11:38:11;;;;;;;4.47;2.05;;;20.70;66.90;;;;;;5094798;28;20205;-60
2021/08/29 11:40:53;;;;;;;7.60;2.00;;;20.70;67.00;;;;;;5094326;28;20205;-60
2021/08/29 11:43:19;;;;;;;4.18;2.08;;;20.70;66.90;;;;;;5097677;28;20181;-60
2021/08/29 11:46:16;;;;;;;4.53;2.00;;;20.80;66.90;;;;;;5114925;28;20169;-60
2021/08/29 11:48:58;;;;;;;3.53;1.92;;;20.80;66.80;;;;;;5113636;27;20184;-60
2021/08/29 11:51:25;;;;;;;3.40;1.98;;;20.80;66.80;;;;;;5114327;28;20191;-60
2021/08/29 11:53:50;;;;;;;6.38;2.13;;;20.80;66.80;;;;;;5115112;28;20180;-60
2021/08/29 11:56:18;;;;;;;2.35;1.77;;;20.80;66.70;;;;;;5114433;28;20169;-60
2021/08/29 11:58:47;;;;;;;3.70;1.85;;;20.80;66.70;;;;;;5114606;28;20176;-60
2021/08/29 12:01:13;;;;;;;2.38;1.92;;;20.80;66.60;;;;;;5104192;28;20220;-60
2021/08/29 12:03:44;;;;;;;3.30;2.40;;;20.90;66.70;;;;;;5093607;28;20170;-60
2021/08/29 12:06:16;;;;;;;2.38;1.70;;;20.90;66.60;;;;;;5094590;28;20177;-60
2021/08/29 12:08:48;;;;;;;3.10;1.77;;;20.90;66.60;;;;;;5093800;28;20189;-60
2021/08/29 12:11:14;;;;;;;3.17;1.77;;;20.90;66.60;;;;;;5092307;28;20239;-60
2021/08/29 12:13:39;;;;;;;2.45;1.60;;;20.90;66.60;;;;;;5092528;28;20177;-60
2021/08/29 12:16:05;;;;;;;2.03;1.63;;;20.80;66.60;;;;;;5093112;28;20302;-59
2021/08/29 12:18:34;;;;;;;3.88;1.60;;;20.80;66.70;;;;;;5093283;28;20252;-59
2021/08/29 12:21:00;;;;;;;1.77;1.45;;;20.80;66.80;;;;;;5093937;28;20232;-60
2021/08/29 12:23:25;;;;;;;2.03;1.73;;;20.80;66.80;;;;;;5092460;28;20262;-60
2021/08/29 12:26:19;;;;;;;2.47;1.67;;;20.80;66.90;;;;;;5093420;28;20257;-59
2021/08/29 12:28:48;;;;;;;2.45;2.13;;;20.80;66.90;;;;;;5094047;28;20261;-59
2021/08/29 12:31:14;;;;;;;2.22;1.80;;;20.70;66.80;;;;;;5091731;28;20182;-59
2021/08/29 12:33:39;;;;;;;2.45;1.75;;;20.70;66.80;;;;;;5093580;28;20251;-60
2021/08/29 12:36:10;;;;;;;2.97;1.40;;;20.70;66.90;;;;;;5108905;28;20185;-60
2021/08/29 12:38:36;;;;;;;2.33;1.88;;;20.60;66.80;;;;;;5113282;28;20201;-60
2021/08/29 12:41:01;;;;;;;3.13;1.63;;;20.70;66.90;;;;;;5113908;28;20314;-60
2021/08/29 12:43:28;;;;;;;2.80;1.80;;;20.70;66.80;;;;;;5113946;28;20284;-60
2021/08/29 12:45:54;;;;;;;2.45;1.77;;;20.70;66.80;;;;;;5113296;28;20192;-61
2021/08/29 12:48:20;;;;;;;2.08;1.83;;;20.70;66.90;;;;;;5113744;28;20688;-60